createdAt,value
2023-04-12T00:00:04.384Z,99589.63
2023-04-12T00:02:06.777Z,99599.03
2023-04-12T00:04:10.273Z,99587.13
2023-04-12T00:06:13.580Z,99588.75
2023-04-12T00:08:17.165Z,99574.19
2023-04-12T00:10:19.807Z,99564.75
2023-04-12T00:12:21.962Z,99567.28
2023-04-12T00:14:24.507Z,99561.31
2023-04-12T00:16:26.858Z,99570.56
2023-04-12T00:18:29.084Z,99573.19
2023-04-12T00:20:31.198Z,99567.38
2023-04-12T00:22:33.859Z,99580.13
2023-04-12T00:24:36.046Z,99573.25
2023-04-12T00:26:38.072Z,99568.16
2023-04-12T00:28:40.752Z,99569.84
2023-04-12T00:30:42.864Z,99563.13
2023-04-12T00:32:45.079Z,99566.53
2023-04-12T00:34:47.349Z,99563.00
2023-04-12T00:36:50.091Z,99556.31
2023-04-12T00:38:52.085Z,99538.31
2023-04-12T00:40:54.279Z,99544.34
2023-04-12T00:42:58.158Z,99526.25
2023-04-12T00:45:00.248Z,99526.38
2023-04-12T00:47:04.215Z,99534.00
2023-04-12T00:49:06.788Z,99534.06
2023-04-12T00:51:09.547Z,99544.22
2023-04-12T00:53:13.766Z,99537.38
2023-04-12T00:55:16.213Z,99543.34
2023-04-12T00:57:18.416Z,99555.38
2023-04-12T00:59:20.653Z,99564.81
2023-04-12T01:01:22.893Z,99573.34
2023-04-12T01:03:28.104Z,99571.56
2023-04-12T01:05:30.789Z,99579.34
2023-04-12T01:07:33.600Z,99572.50
2023-04-12T01:09:40.079Z,99563.97
2023-04-12T01:11:46.107Z,99565.66
2023-04-12T01:13:59.191Z,99568.22
2023-04-12T01:16:12.993Z,99576.59
2023-04-12T01:18:20.005Z,99574.00
2023-04-12T01:20:26.698Z,99562.22
2023-04-12T01:22:33.574Z,99548.53
2023-04-12T01:24:41.919Z,99556.31
2023-04-12T01:26:48.056Z,99561.38
2023-04-12T01:28:54.480Z,99545.97
2023-04-12T01:30:56.795Z,99538.22
2023-04-12T01:33:02.149Z,99545.06
2023-04-12T01:35:07.581Z,99556.16
2023-04-12T01:37:10.254Z,99546.78
2023-04-12T01:39:12.346Z,99557.88
2023-04-12T01:41:14.843Z,99561.19
2023-04-12T01:43:16.909Z,99555.31
2023-04-12T01:45:19.145Z,99551.13
2023-04-12T01:47:21.480Z,99550.25
2023-04-12T01:49:32.990Z,99546.06
2023-04-12T01:51:38.506Z,99552.88
2023-04-12T01:53:48.005Z,99547.59
2023-04-12T01:55:52.211Z,99557.03
2023-04-12T01:57:54.752Z,99558.81
2023-04-12T01:59:59.255Z,99554.59
2023-04-12T02:02:03.653Z,99552.81
2023-04-12T02:04:07.474Z,99555.41
2023-04-12T02:06:11.191Z,99553.69
2023-04-12T02:08:13.281Z,99551.75
2023-04-12T02:10:15.722Z,99557.91
2023-04-12T02:12:17.821Z,99552.72
2023-04-12T02:14:19.886Z,99550.94
2023-04-12T02:16:23.326Z,99558.75
2023-04-12T02:18:25.404Z,99554.34
2023-04-12T02:20:27.623Z,99543.34
2023-04-12T02:22:29.604Z,99539.94
2023-04-12T02:24:32.009Z,99540.75
2023-04-12T02:26:34.007Z,99547.41
2023-04-12T02:28:37.322Z,99549.03
2023-04-12T02:30:42.025Z,99546.66
2023-04-12T02:32:45.006Z,99534.81
2023-04-12T02:34:51.558Z,99528.78
2023-04-12T02:36:53.469Z,99527.09
2023-04-12T02:38:56.332Z,99536.56
2023-04-12T02:40:58.274Z,99536.47
2023-04-12T02:43:00.597Z,99527.72
2023-04-12T02:45:02.650Z,99525.16
2023-04-12T02:47:04.616Z,99519.19
2023-04-12T02:49:06.613Z,99521.78
2023-04-12T02:51:08.565Z,99510.63
2023-04-12T02:53:10.659Z,99523.56
2023-04-12T02:55:12.654Z,99511.59
2023-04-12T02:57:16.302Z,99515.88
2023-04-12T02:59:18.307Z,99518.44
2023-04-12T03:01:20.297Z,99515.88
2023-04-12T03:03:22.501Z,99517.56
2023-04-12T03:05:24.834Z,99503.91
2023-04-12T03:07:28.047Z,99509.03
2023-04-12T03:09:29.969Z,99516.69
2023-04-12T03:11:32.068Z,99523.66
2023-04-12T03:13:34.114Z,99516.75
2023-04-12T03:15:36.120Z,99518.44
2023-04-12T03:17:38.230Z,99524.41
2023-04-12T03:19:40.197Z,99523.47
2023-04-12T03:21:42.151Z,99514.94
2023-04-12T03:23:44.096Z,99518.44
2023-04-12T03:25:46.203Z,99507.25
2023-04-12T03:27:48.155Z,99507.13
2023-04-12T03:29:50.170Z,99510.50
2023-04-12T03:31:52.142Z,99520.91
2023-04-12T03:33:54.603Z,99514.84
2023-04-12T03:35:56.676Z,99506.28
2023-04-12T03:37:58.628Z,99505.50
2023-04-12T03:40:01.007Z,99509.69
2023-04-12T03:42:02.955Z,99496.78
2023-04-12T03:44:05.115Z,99519.81
2023-04-12T03:46:07.289Z,99500.13
2023-04-12T03:48:11.161Z,99505.22
2023-04-12T03:50:13.252Z,99494.16
2023-04-12T03:52:15.294Z,99496.78
2023-04-12T03:54:17.493Z,99497.66
2023-04-12T03:56:21.043Z,99500.22
2023-04-12T03:58:23.341Z,99498.59
2023-04-12T04:00:25.358Z,99492.59
2023-04-12T04:02:27.953Z,99490.91
2023-04-12T04:04:30.369Z,99489.22
2023-04-12T04:06:33.317Z,99486.63
2023-04-12T04:08:35.336Z,99485.59
2023-04-12T04:10:37.596Z,99477.06
2023-04-12T04:12:39.515Z,99476.19
2023-04-12T04:14:41.548Z,99475.28
2023-04-12T04:16:43.577Z,99474.47
2023-04-12T04:18:45.762Z,99481.25
2023-04-12T04:20:47.721Z,99476.09
2023-04-12T04:22:50.024Z,99485.53
2023-04-12T04:24:51.994Z,99494.91
2023-04-12T04:26:54.463Z,99485.53
2023-04-12T04:28:56.368Z,99486.38
2023-04-12T04:31:05.877Z,99482.09
2023-04-12T04:33:08.985Z,99482.88
2023-04-12T04:35:11.238Z,99483.66
2023-04-12T04:37:13.505Z,99479.22
2023-04-12T04:39:15.416Z,99468.22
2023-04-12T04:41:17.710Z,99474.94
2023-04-12T04:43:20.302Z,99470.84
2023-04-12T04:45:26.803Z,99479.22
2023-04-12T04:47:30.726Z,99480.91
2023-04-12T04:49:33.969Z,99474.06
2023-04-12T04:51:36.747Z,99479.19
2023-04-12T04:53:38.782Z,99471.53
2023-04-12T04:55:41.440Z,99478.25
2023-04-12T04:57:44.218Z,99475.59
2023-04-12T04:59:46.288Z,99469.44
2023-04-12T05:01:48.353Z,99479.69
2023-04-12T05:03:51.940Z,99473.63
2023-04-12T05:05:55.114Z,99480.50
2023-04-12T05:07:58.215Z,99486.41
2023-04-12T05:10:00.400Z,99483.94
2023-04-12T05:12:02.423Z,99486.28
2023-04-12T05:14:04.386Z,99492.16
2023-04-12T05:16:08.201Z,99481.06
2023-04-12T05:18:10.330Z,99486.06
2023-04-12T05:20:12.461Z,99496.22
2023-04-12T05:22:14.714Z,99494.25
2023-04-12T05:24:16.716Z,99492.84
2023-04-12T05:26:18.893Z,99483.34
2023-04-12T05:28:20.835Z,99492.72
2023-04-12T05:30:22.924Z,99486.69
2023-04-12T05:32:26.268Z,99477.34
2023-04-12T05:34:28.351Z,99475.66
2023-04-12T05:36:30.724Z,99476.59
2023-04-12T05:38:32.770Z,99476.47
2023-04-12T05:40:36.544Z,99473.06
2023-04-12T05:42:38.728Z,99472.94
2023-04-12T05:44:41.659Z,99473.81
2023-04-12T05:46:43.709Z,99471.00
2023-04-12T05:48:45.730Z,99471.94
2023-04-12T05:50:52.165Z,99471.09
2023-04-12T05:52:55.832Z,99466.66
2023-04-12T05:54:57.802Z,99469.56
2023-04-12T05:56:59.794Z,99469.47
2023-04-12T05:59:02.519Z,99467.81
2023-04-12T06:01:05.644Z,99463.53
2023-04-12T06:03:09.653Z,99468.66
2023-04-12T06:05:13.193Z,99462.56
2023-04-12T06:07:19.044Z,99474.69
2023-04-12T06:09:20.998Z,99466.13
2023-04-12T06:11:23.102Z,99457.25
2023-04-12T06:13:25.368Z,99445.66
2023-04-12T06:15:27.415Z,99441.50
2023-04-12T06:17:29.437Z,99447.63
2023-04-12T06:19:31.559Z,99455.28
2023-04-12T06:21:33.571Z,99455.28
2023-04-12T06:23:35.846Z,99458.50
2023-04-12T06:25:38.052Z,99460.31
2023-04-12T06:27:40.114Z,99449.16
2023-04-12T06:29:42.192Z,99453.44
2023-04-12T06:31:44.417Z,99451.00
2023-04-12T06:33:47.464Z,99456.84
2023-04-12T06:35:50.128Z,99450.00
2023-04-12T06:37:52.151Z,99448.22
2023-04-12T06:39:54.064Z,99452.59
2023-04-12T06:41:57.742Z,99450.09
2023-04-12T06:43:59.831Z,99443.34
2023-04-12T06:46:03.487Z,99445.75
2023-04-12T06:48:05.643Z,99450.78
2023-04-12T06:50:08.480Z,99444.06
2023-04-12T06:52:10.673Z,99434.00
2023-04-12T06:54:14.176Z,99428.00
2023-04-12T06:56:18.406Z,99425.47
2023-04-12T06:58:21.016Z,99434.88
2023-04-12T07:00:23.611Z,99432.25
2023-04-12T07:02:25.725Z,99431.28
2023-04-12T07:04:27.888Z,99416.81
2023-04-12T07:06:30.034Z,99417.53
2023-04-12T07:08:35.139Z,99406.69
2023-04-12T07:10:37.552Z,99416.28
2023-04-12T07:12:39.785Z,99410.06
2023-04-12T07:14:44.052Z,99411.00
2023-04-12T07:16:46.819Z,99409.38
2023-04-12T07:18:49.446Z,99408.25
2023-04-12T07:20:54.656Z,99407.56
2023-04-12T07:22:56.797Z,99406.81
2023-04-12T07:24:59.361Z,99398.38
2023-04-12T07:27:01.681Z,99395.84
2023-04-12T07:29:05.342Z,99390.84
2023-04-12T07:31:07.944Z,99390.00
2023-04-12T07:33:19.271Z,99389.09
2023-04-12T07:35:22.956Z,99389.31
2023-04-12T07:37:25.218Z,99381.56
2023-04-12T07:39:29.940Z,99380.78
2023-04-12T07:41:32.167Z,99377.38
2023-04-12T07:43:34.268Z,99382.63
2023-04-12T07:45:38.156Z,99376.66
2023-04-12T07:47:40.417Z,99386.88
2023-04-12T07:49:42.779Z,99381.00
2023-04-12T07:51:45.077Z,99386.97
2023-04-12T07:53:48.774Z,99376.81
2023-04-12T07:55:52.085Z,99382.00
2023-04-12T07:57:54.231Z,99387.81
2023-04-12T07:59:57.014Z,99404.13
2023-04-12T08:01:59.643Z,99379.31
2023-04-12T08:04:05.249Z,99372.38
2023-04-12T08:06:13.557Z,99371.59
2023-04-12T08:08:15.622Z,99365.69
2023-04-12T08:10:17.731Z,99363.16
2023-04-12T08:12:21.432Z,99346.91
2023-04-12T08:14:23.991Z,99347.78
2023-04-12T08:16:26.913Z,99369.22
2023-04-12T08:18:29.805Z,99344.41
2023-04-12T08:20:32.941Z,99350.41
2023-04-12T08:22:35.947Z,99378.50
2023-04-12T08:24:38.221Z,99357.09
2023-04-12T08:26:40.381Z,99349.56
2023-04-12T08:28:43.088Z,99331.72
2023-04-12T08:30:46.681Z,99348.00
2023-04-12T08:32:48.840Z,99356.47
2023-04-12T08:34:53.792Z,99336.91
2023-04-12T08:37:06.292Z,99345.53
2023-04-12T08:39:09.720Z,99331.78
2023-04-12T08:41:11.744Z,99343.81
2023-04-12T08:43:15.151Z,99329.31
2023-04-12T08:45:17.353Z,99330.13
2023-04-12T08:47:21.357Z,99325.00
2023-04-12T08:49:25.409Z,99324.22
2023-04-12T08:51:28.093Z,99332.84
2023-04-12T08:53:30.128Z,99324.25
2023-04-12T08:55:32.200Z,99319.97
2023-04-12T08:57:36.823Z,99336.19
2023-04-12T08:59:42.611Z,99338.78
2023-04-12T09:01:45.085Z,99309.66
2023-04-12T09:03:47.723Z,99326.81
2023-04-12T09:05:50.274Z,99320.88
2023-04-12T09:07:52.514Z,99329.34
2023-04-12T09:09:55.713Z,99294.34
2023-04-12T09:12:08.306Z,99311.47
2023-04-12T09:14:18.355Z,99321.63
2023-04-12T09:16:35.802Z,99310.50
2023-04-12T09:18:50.300Z,99309.66
2023-04-12T09:21:08.219Z,99309.63
2023-04-12T09:23:17.007Z,99299.41
2023-04-12T09:25:19.230Z,99310.56
2023-04-12T09:27:21.659Z,99312.16
2023-04-12T09:29:26.479Z,99308.00
2023-04-12T09:31:29.480Z,99302.16
2023-04-12T09:33:43.064Z,99316.69
2023-04-12T09:35:45.599Z,99323.41
2023-04-12T09:37:58.359Z,99308.16
2023-04-12T09:40:05.577Z,99299.63
2023-04-12T09:42:17.995Z,99307.34
2023-04-12T09:44:30.662Z,99304.84
2023-04-12T09:46:34.141Z,99297.97
2023-04-12T09:48:37.914Z,99292.88
2023-04-12T09:50:40.362Z,99292.06
2023-04-12T09:52:42.554Z,99280.06
2023-04-12T09:54:46.268Z,99290.34
2023-04-12T09:56:49.356Z,99283.50
2023-04-12T09:58:54.232Z,99284.34
2023-04-12T10:01:00.040Z,99270.63
2023-04-12T10:03:02.815Z,99268.91
2023-04-12T10:05:06.404Z,99255.22
2023-04-12T10:07:10.215Z,99243.22
2023-04-12T10:09:14.935Z,99241.53
2023-04-12T10:11:18.049Z,99250.09
2023-04-12T10:13:20.996Z,99242.38
2023-04-12T10:15:25.947Z,99259.50
2023-04-12T10:17:29.842Z,99262.06
2023-04-12T10:19:34.097Z,99239.81
2023-04-12T10:21:36.553Z,99245.78
2023-04-12T10:23:38.720Z,99233.81
2023-04-12T10:25:44.245Z,99229.53
2023-04-12T10:27:47.224Z,99249.22
2023-04-12T10:29:49.937Z,99236.41
2023-04-12T10:31:52.790Z,99258.66
2023-04-12T10:33:56.165Z,99207.28
2023-04-12T10:36:03.911Z,99207.25
2023-04-12T10:38:07.217Z,99188.38
2023-04-12T10:40:17.797Z,99198.66
2023-04-12T10:42:27.790Z,99173.78
2023-04-12T10:44:30.433Z,99167.75
2023-04-12T10:46:37.879Z,99166.00
2023-04-12T10:48:51.632Z,99152.28
2023-04-12T10:51:16.129Z,99141.97
2023-04-12T10:53:23.939Z,99138.56
2023-04-12T10:55:30.441Z,99139.44
2023-04-12T10:57:39.142Z,99157.38
2023-04-12T10:59:51.909Z,99158.97
2023-04-12T11:02:10.694Z,99142.56
2023-04-12T11:04:26.627Z,99150.06
2023-04-12T11:06:35.156Z,99146.63
2023-04-12T11:08:41.572Z,99129.47
2023-04-12T11:10:47.354Z,99136.59
2023-04-12T11:12:55.625Z,99152.03
2023-04-12T11:15:02.489Z,99134.72
2023-04-12T11:17:09.555Z,99139.16
2023-04-12T11:19:13.625Z,99131.44
2023-04-12T11:21:16.894Z,99164.09
2023-04-12T11:23:20.662Z,99114.34
2023-04-12T11:25:23.820Z,99130.66
2023-04-12T11:27:29.305Z,99129.72
2023-04-12T11:29:34.774Z,99110.75
2023-04-12T11:31:39.791Z,99136.44
2023-04-12T11:33:42.969Z,99111.56
2023-04-12T11:35:47.372Z,99108.91
2023-04-12T11:37:50.532Z,99120.19
2023-04-12T11:39:56.584Z,99096.91
2023-04-12T11:41:59.980Z,99099.56
2023-04-12T11:44:04.093Z,99132.28
2023-04-12T11:46:07.462Z,99105.69
2023-04-12T11:48:14.623Z,99103.28
2023-04-12T11:50:31.551Z,99110.06
2023-04-12T11:52:35.536Z,99115.38
2023-04-12T11:54:38.507Z,99080.13
2023-04-12T11:56:43.854Z,99079.41
2023-04-12T11:58:48.932Z,99124.09
2023-04-12T12:00:51.538Z,99139.44
2023-04-12T12:03:06.888Z,99159.25
2023-04-12T12:05:11.834Z,99093.28
2023-04-12T12:07:17.820Z,99104.34
2023-04-12T12:09:21.561Z,99101.78
2023-04-12T12:11:25.409Z,99034.91
2023-04-12T12:13:28.052Z,99016.88
2023-04-12T12:15:44.548Z,99019.38
2023-04-12T12:17:51.888Z,99028.75
2023-04-12T12:19:59.752Z,99053.47
2023-04-12T12:22:13.372Z,99140.22
2023-04-12T12:24:16.933Z,99089.91
2023-04-12T12:26:25.656Z,99053.09
2023-04-12T12:28:28.692Z,99044.44
2023-04-12T12:30:32.368Z,99047.13
2023-04-12T12:32:37.601Z,99011.88
2023-04-12T12:34:42.109Z,99010.97
2023-04-12T12:36:44.532Z,99009.16
2023-04-12T12:38:49.465Z,98999.69
2023-04-12T12:40:53.136Z,98999.63
2023-04-12T12:42:56.915Z,98982.53
2023-04-12T12:44:59.539Z,99016.81
2023-04-12T12:47:10.100Z,99019.34
2023-04-12T12:49:16.680Z,98964.34
2023-04-12T12:51:20.572Z,98994.50
2023-04-12T12:53:24.603Z,98957.72
2023-04-12T12:55:28.798Z,98931.91
2023-04-12T12:57:32.125Z,98955.97
2023-04-12T12:59:34.631Z,98972.56
2023-04-12T13:01:37.441Z,98986.25
2023-04-12T13:03:41.055Z,99006.78
2023-04-12T13:05:43.984Z,98983.75
2023-04-12T13:07:47.119Z,98955.53
2023-04-12T13:09:50.950Z,98934.94
2023-04-12T13:11:53.676Z,98939.31
2023-04-12T13:13:58.279Z,98947.81
2023-04-12T13:16:00.895Z,98967.50
2023-04-12T13:18:03.483Z,98963.31
2023-04-12T13:20:06.720Z,98937.56
2023-04-12T13:22:09.365Z,98908.47
2023-04-12T13:24:11.828Z,98904.16
2023-04-12T13:26:14.254Z,98926.50
2023-04-12T13:28:17.540Z,98991.66
2023-04-12T13:30:20.823Z,98991.69
2023-04-12T13:32:23.663Z,98956.63
2023-04-12T13:34:26.885Z,98954.06
2023-04-12T13:36:29.459Z,98977.13
2023-04-12T13:38:32.230Z,98972.88
2023-04-12T13:40:36.578Z,98948.94
2023-04-12T13:42:39.056Z,98907.03
2023-04-12T13:44:44.860Z,98921.59
2023-04-12T13:46:47.268Z,98938.66
2023-04-12T13:48:49.982Z,98930.09
2023-04-12T13:50:53.578Z,98919.84
2023-04-12T13:52:58.362Z,99020.75
2023-04-12T13:55:01.045Z,98904.47
2023-04-12T13:57:04.525Z,98912.19
2023-04-12T13:59:07.287Z,98925.00
2023-04-12T14:01:10.279Z,98903.66
2023-04-12T14:03:13.874Z,98937.78
2023-04-12T14:05:16.485Z,98973.72
2023-04-12T14:07:18.989Z,98907.06
2023-04-12T14:09:26.661Z,98936.09
2023-04-12T14:11:29.225Z,98913.91
2023-04-12T14:13:31.646Z,98923.31
2023-04-12T14:15:33.898Z,98913.00
2023-04-12T14:17:37.538Z,98930.09
2023-04-12T14:19:44.057Z,98901.91
2023-04-12T14:21:54.897Z,98944.56
2023-04-12T14:23:57.194Z,98882.16
2023-04-12T14:26:00.339Z,98921.41
2023-04-12T14:28:03.236Z,98864.16
2023-04-12T14:30:07.573Z,98893.97
2023-04-12T14:32:10.010Z,98883.78
2023-04-12T14:34:13.784Z,98865.94
2023-04-12T14:36:16.444Z,98848.06
2023-04-12T14:38:18.935Z,98868.59
2023-04-12T14:40:21.631Z,98822.50
2023-04-12T14:42:24.191Z,98819.94
2023-04-12T14:44:27.772Z,98843.00
2023-04-12T14:46:33.898Z,98842.91
2023-04-12T14:48:36.690Z,98824.09
2023-04-12T14:50:39.665Z,98825.78
2023-04-12T14:52:42.311Z,98865.03
2023-04-12T14:54:44.677Z,98833.31
2023-04-12T14:56:54.346Z,98840.28
2023-04-12T14:58:58.730Z,98799.13
2023-04-12T15:01:01.705Z,98822.03
2023-04-12T15:03:05.908Z,98821.31
2023-04-12T15:05:12.191Z,98894.13
2023-04-12T15:07:14.840Z,98819.81
2023-04-12T15:09:18.508Z,98795.84
2023-04-12T15:11:23.013Z,98836.97
2023-04-12T15:13:33.194Z,98796.72
2023-04-12T15:15:36.681Z,98801.03
2023-04-12T15:17:39.262Z,98825.84
2023-04-12T15:19:41.372Z,98796.81
2023-04-12T15:21:46.885Z,98777.09
2023-04-12T15:23:53.874Z,98800.28
2023-04-12T15:26:03.243Z,98772.91
2023-04-12T15:28:06.384Z,98803.69
2023-04-12T15:30:11.288Z,98809.59
2023-04-12T15:32:13.928Z,98786.53
2023-04-12T15:34:16.674Z,98787.44
2023-04-12T15:36:19.879Z,98801.06
2023-04-12T15:38:23.760Z,98782.28
2023-04-12T15:40:26.649Z,98781.34
2023-04-12T15:42:29.438Z,98777.09
2023-04-12T15:44:32.690Z,98772.84
2023-04-12T15:46:36.784Z,98760.00
2023-04-12T15:48:39.142Z,98765.16
2023-04-12T15:50:42.006Z,98769.38
2023-04-12T15:52:44.947Z,98766.84
2023-04-12T15:54:47.159Z,98818.19
2023-04-12T15:56:51.098Z,98760.06
2023-04-12T15:58:57.602Z,98761.75
2023-04-12T16:01:00.605Z,98781.47
2023-04-12T16:03:03.229Z,98744.72
2023-04-12T16:05:07.221Z,98754.16
2023-04-12T16:07:18.237Z,98742.16
2023-04-12T16:09:22.883Z,98742.19
2023-04-12T16:11:34.673Z,98752.47
2023-04-12T16:13:38.664Z,98745.63
2023-04-12T16:15:45.227Z,98729.41
2023-04-12T16:17:49.816Z,98730.25
2023-04-12T16:19:53.675Z,98727.69
2023-04-12T16:22:03.572Z,98725.06
2023-04-12T16:24:09.880Z,98722.50
2023-04-12T16:26:13.766Z,98714.91
2023-04-12T16:28:19.316Z,98730.28
2023-04-12T16:30:24.060Z,98711.47
2023-04-12T16:32:28.110Z,98708.97
2023-04-12T16:34:32.511Z,98709.75
2023-04-12T16:36:41.362Z,98705.47
2023-04-12T16:38:47.382Z,98713.16
2023-04-12T16:40:51.134Z,98720.00
2023-04-12T16:42:54.513Z,98710.59
2023-04-12T16:44:57.264Z,98703.81
2023-04-12T16:47:01.234Z,98710.66
2023-04-12T16:49:11.078Z,98693.59
2023-04-12T16:51:14.193Z,98685.84
2023-04-12T16:53:17.374Z,98691.00
2023-04-12T16:55:21.029Z,98699.56
2023-04-12T16:57:24.317Z,98689.31
2023-04-12T16:59:27.168Z,98684.16
2023-04-12T17:01:31.267Z,98686.69
2023-04-12T17:06:27.788Z,98683.22
2023-04-12T17:08:40.090Z,98664.38
2023-04-12T17:11:00.885Z,98667.00
2023-04-12T17:13:11.734Z,98662.75
2023-04-12T17:15:36.014Z,98639.63
2023-04-12T17:17:39.264Z,98633.63
2023-04-12T17:19:44.637Z,98632.78
2023-04-12T17:21:49.246Z,98634.47
2023-04-12T17:23:54.310Z,98627.59
2023-04-12T17:26:01.583Z,98630.09
2023-04-12T17:28:06.585Z,98645.59
2023-04-12T17:30:14.712Z,98633.56
2023-04-12T17:32:18.009Z,98636.97
2023-04-12T17:39:18.355Z,98652.31
2023-04-12T17:41:28.160Z,98651.47
2023-04-12T17:43:33.405Z,98651.44
2023-04-12T17:46:08.873Z,98650.53
2023-04-12T17:48:23.077Z,98646.25
2023-04-12T17:50:37.969Z,98641.91
2023-04-12T17:52:52.893Z,98649.63
2023-04-12T17:59:50.543Z,98646.25
2023-04-12T18:02:52.089Z,98652.19
2023-04-12T18:07:28.956Z,98654.88
2023-04-12T18:09:55.069Z,98653.16
2023-04-12T18:12:15.800Z,98662.47
2023-04-12T18:14:38.597Z,98660.72
2023-04-12T18:17:01.276Z,98668.44
2023-04-12T18:19:26.530Z,98675.38
2023-04-12T18:22:01.742Z,98676.19
2023-04-12T18:24:25.123Z,98685.78
2023-04-12T18:26:41.081Z,98685.75
2023-04-12T18:28:51.036Z,98704.59
2023-04-12T18:30:58.596Z,98687.53
2023-04-12T18:35:36.528Z,98684.94
2023-04-12T18:40:01.911Z,98690.03
2023-04-12T18:42:05.234Z,98693.44
2023-04-12T18:44:09.502Z,98699.41
2023-04-12T18:46:18.016Z,98694.28
2023-04-12T18:48:21.179Z,98690.06
2023-04-12T18:50:24.660Z,98702.06
2023-04-12T18:52:27.942Z,98701.19
2023-04-12T18:54:30.792Z,98706.34
2023-04-12T18:56:43.630Z,98711.50
2023-04-12T18:58:55.233Z,98705.47
2023-04-12T19:01:10.486Z,98708.00
2023-04-12T19:03:14.007Z,98707.19
2023-04-12T19:05:18.065Z,98702.94
2023-04-12T19:07:21.496Z,98719.16
2023-04-12T19:09:24.733Z,98727.72
2023-04-12T19:11:28.067Z,98731.19
2023-04-12T19:13:30.526Z,98733.72
2023-04-12T19:15:33.008Z,98730.28
2023-04-12T19:17:39.467Z,98742.22
2023-04-12T19:19:43.088Z,98736.25
2023-04-12T19:21:46.377Z,98742.22
2023-04-12T19:23:48.959Z,98742.22
2023-04-12T19:25:53.367Z,98745.63
2023-04-12T19:27:56.391Z,98747.38
2023-04-12T19:29:59.086Z,98768.72
2023-04-12T19:32:03.014Z,98762.75
2023-04-12T19:34:06.446Z,98768.75
2023-04-12T19:36:09.893Z,98772.13
2023-04-12T19:38:12.877Z,98778.13
2023-04-12T19:40:15.938Z,98776.38
2023-04-12T19:42:18.772Z,98785.81
2023-04-12T19:44:23.745Z,98788.34
2023-04-12T19:46:26.767Z,98785.78
2023-04-12T19:48:30.469Z,98790.06
2023-04-12T19:50:33.131Z,98797.75
2023-04-12T19:52:36.232Z,98798.59
2023-04-12T19:54:39.814Z,98794.34
2023-04-12T19:56:42.672Z,98798.59
2023-04-12T19:58:45.814Z,98802.03
2023-04-12T20:00:52.594Z,98809.69
2023-04-12T20:02:55.729Z,98806.31
2023-04-12T20:05:00.125Z,98800.31
2023-04-12T20:07:02.955Z,98814.81
2023-04-12T20:09:06.126Z,98816.53
2023-04-12T20:11:09.315Z,98822.50
2023-04-12T20:13:16.001Z,98825.06
2023-04-12T20:15:19.597Z,98817.41
2023-04-12T20:17:22.916Z,98826.78
2023-04-12T20:19:27.854Z,98850.69
2023-04-12T20:21:32.560Z,98838.75
2023-04-12T20:23:36.125Z,98846.41
2023-04-12T20:25:39.033Z,98860.94
2023-04-12T20:27:42.609Z,98846.41
2023-04-12T20:29:47.796Z,98855.81
2023-04-12T20:31:52.767Z,98866.06
2023-04-12T20:33:57.352Z,98872.03
2023-04-12T20:36:00.181Z,98865.22
2023-04-12T20:38:03.719Z,98869.50
2023-04-12T20:40:10.079Z,98887.41
2023-04-12T20:42:13.578Z,98889.13
2023-04-12T20:44:18.301Z,98901.09
2023-04-12T20:46:25.997Z,98909.63
2023-04-12T20:48:28.979Z,98913.91
2023-04-12T20:50:31.475Z,98917.31
2023-04-12T20:52:36.453Z,98927.56
2023-04-12T20:54:39.329Z,98931.84
2023-04-12T20:56:42.539Z,98944.66
2023-04-12T20:58:46.260Z,98942.97
2023-04-12T21:00:49.638Z,98950.66
2023-04-12T21:02:52.177Z,98948.94
2023-04-12T21:04:54.506Z,98952.38
2023-04-12T21:06:57.889Z,98959.19
2023-04-12T21:09:00.267Z,98964.31
2023-04-12T21:11:02.930Z,98964.31
2023-04-12T21:13:05.283Z,98972.00
2023-04-12T21:15:08.779Z,98963.47
2023-04-12T21:17:10.948Z,98982.25
2023-04-12T21:19:13.508Z,98973.72
2023-04-12T21:21:16.192Z,98980.56
2023-04-12T21:23:18.844Z,98993.34
2023-04-12T21:25:21.453Z,98994.25
2023-04-12T21:27:23.613Z,99001.88
2023-04-12T21:29:25.653Z,98995.06
2023-04-12T21:31:29.262Z,98992.53
2023-04-12T21:33:32.340Z,99000.22
2023-04-12T21:35:34.499Z,99001.91
2023-04-12T21:37:38.472Z,99004.44
2023-04-12T21:39:40.655Z,99011.28
2023-04-12T21:41:42.794Z,99018.13
2023-04-12T21:43:47.780Z,99023.25
2023-04-12T21:45:49.827Z,99028.41
2023-04-12T21:47:53.681Z,99031.81
2023-04-12T21:49:55.960Z,99034.38
2023-04-12T21:51:59.281Z,99035.25
2023-04-12T21:54:01.889Z,99046.31
2023-04-12T21:56:05.619Z,99048.91
2023-04-12T21:58:07.749Z,99069.38
2023-04-12T22:00:10.853Z,99061.72
2023-04-12T22:02:13.159Z,99068.44
2023-04-12T22:04:15.245Z,99065.06
2023-04-12T22:06:19.782Z,99078.75
2023-04-12T22:08:23.934Z,99085.63
2023-04-12T22:10:25.896Z,99083.88
2023-04-12T22:12:27.974Z,99094.16
2023-04-12T22:14:29.890Z,99095.88
2023-04-12T22:16:33.075Z,99094.19
2023-04-12T22:18:35.930Z,99104.47
2023-04-12T22:20:38.481Z,99115.56
2023-04-12T22:22:41.511Z,99122.41
2023-04-12T22:24:44.344Z,99124.97
2023-04-12T22:26:46.322Z,99140.31
2023-04-12T22:28:50.157Z,99136.84
2023-04-12T22:30:52.423Z,99144.59
2023-04-12T22:32:54.693Z,99146.28
2023-04-12T22:35:08.278Z,99156.53
2023-04-12T22:37:12.070Z,99150.56
2023-04-12T22:39:18.285Z,99162.53
2023-04-12T22:41:20.519Z,99171.03
2023-04-12T22:43:22.968Z,99169.31
2023-04-12T22:45:25.229Z,99171.06
2023-04-12T22:47:27.380Z,99178.66
2023-04-12T22:49:29.441Z,99184.69
2023-04-12T22:51:32.763Z,99182.13
2023-04-12T22:53:34.779Z,99179.50
2023-04-12T22:55:36.916Z,99190.56
2023-04-12T22:57:39.072Z,99198.16
2023-04-12T22:59:41.015Z,99203.34
2023-04-12T23:01:44.906Z,99208.53
2023-04-12T23:03:47.112Z,99206.00
2023-04-12T23:05:50.392Z,99217.09
2023-04-12T23:07:52.443Z,99222.22
2023-04-12T23:09:56.215Z,99249.63
2023-04-12T23:11:58.326Z,99229.91
2023-04-12T23:14:00.708Z,99238.50
2023-04-12T23:16:03.762Z,99239.38
2023-04-12T23:18:08.691Z,99241.09
2023-04-12T23:20:13.510Z,99241.97
2023-04-12T23:22:44.572Z,99256.47
2023-04-12T23:24:54.473Z,99260.72
2023-04-12T23:26:58.041Z,99279.53
2023-04-12T23:29:02.454Z,99265.09
2023-04-12T23:31:05.893Z,99269.25
2023-04-12T23:33:09.495Z,99282.94
2023-04-12T23:35:12.336Z,99279.44
2023-04-12T23:37:15.201Z,99286.09
2023-04-12T23:39:18.253Z,99288.06
2023-04-12T23:41:20.260Z,99293.06
2023-04-12T23:43:23.637Z,99308.56
2023-04-12T23:45:25.920Z,99291.47
2023-04-12T23:47:27.936Z,99303.50
2023-04-12T23:49:29.846Z,99312.09
2023-04-12T23:51:31.856Z,99309.47
2023-04-12T23:53:33.880Z,99315.47
2023-04-12T23:55:36.016Z,99317.94
2023-04-12T23:57:37.983Z,99310.25
2023-04-12T23:59:40.069Z,99306.06
